createdAt,value
2023-12-05T00:03:34.214Z,63.67
2023-12-05T00:08:41.350Z,64.03
2023-12-05T00:13:49.265Z,63.69
2023-12-05T00:18:56.449Z,63.51
2023-12-05T00:24:03.730Z,63.38
2023-12-05T00:29:10.853Z,63.40
2023-12-05T00:34:18.017Z,63.67
2023-12-05T00:39:25.159Z,63.66
2023-12-05T00:44:32.270Z,63.63
2023-12-05T00:49:39.529Z,63.74
2023-12-05T00:54:46.591Z,63.50
2023-12-05T00:59:53.822Z,63.82
2023-12-05T01:05:01.264Z,63.48
2023-12-05T01:10:09.463Z,63.48
2023-12-05T01:15:16.485Z,63.68
2023-12-05T01:20:23.970Z,63.75
2023-12-05T01:25:31.486Z,63.34
2023-12-05T01:30:38.850Z,63.64
2023-12-05T01:35:45.864Z,63.57
2023-12-05T01:40:52.657Z,63.48
2023-12-05T01:46:00.999Z,63.50
2023-12-05T01:51:09.703Z,63.31
2023-12-05T01:56:17.298Z,63.51
2023-12-05T02:01:24.357Z,63.64
2023-12-05T02:06:31.809Z,63.44
2023-12-05T02:11:39.718Z,63.48
2023-12-05T02:16:52.151Z,63.39
2023-12-05T02:22:03.444Z,63.19
2023-12-05T02:27:15.765Z,63.53
2023-12-05T02:32:23.009Z,63.71
2023-12-05T02:37:35.561Z,63.68
2023-12-05T02:42:44.320Z,63.77
2023-12-05T02:47:52.216Z,63.18
2023-12-05T02:52:59.464Z,63.74
2023-12-05T02:58:06.634Z,63.47
2023-12-05T03:03:14.196Z,63.48
2023-12-05T03:08:21.583Z,63.80
2023-12-05T03:13:28.848Z,63.77
2023-12-05T03:18:36.094Z,63.46
2023-12-05T03:23:43.782Z,63.52
2023-12-05T03:28:51.210Z,63.75
2023-12-05T03:33:58.437Z,64.00
2023-12-05T03:39:06.770Z,63.39
2023-12-05T03:44:13.767Z,63.58
2023-12-05T03:49:21.347Z,63.41
2023-12-05T03:54:28.809Z,63.66
2023-12-05T03:59:35.844Z,63.66
2023-12-05T04:04:42.822Z,63.48
2023-12-05T04:09:50.102Z,63.49
2023-12-05T04:14:57.343Z,63.65
2023-12-05T04:20:05.915Z,63.21
2023-12-05T04:25:13.526Z,63.62
2023-12-05T04:30:21.741Z,63.24
2023-12-05T04:35:30.561Z,63.54
2023-12-05T04:40:37.561Z,63.70
2023-12-05T04:45:46.895Z,63.30
2023-12-05T04:50:54.005Z,63.40
2023-12-05T04:56:01.198Z,63.17
2023-12-05T05:01:08.770Z,63.69
2023-12-05T05:06:16.145Z,63.58
2023-12-05T05:11:23.414Z,63.40
2023-12-05T05:16:30.626Z,63.42
2023-12-05T05:21:37.632Z,63.50
2023-12-05T05:26:44.624Z,63.43
2023-12-05T05:31:51.731Z,63.52
2023-12-05T05:36:59.024Z,63.53
2023-12-05T05:42:06.284Z,63.60
2023-12-05T05:47:13.633Z,63.73
2023-12-05T05:52:20.795Z,63.85
2023-12-05T05:57:28.644Z,63.80
2023-12-05T06:02:36.205Z,63.38
2023-12-05T06:07:43.415Z,63.37
2023-12-05T06:12:50.648Z,63.58
2023-12-05T06:17:59.211Z,63.52
2023-12-05T06:23:06.183Z,63.51
2023-12-05T06:28:13.403Z,63.37
2023-12-05T06:33:20.537Z,63.46
2023-12-05T06:38:28.010Z,63.42
2023-12-05T06:43:35.341Z,63.62
2023-12-05T06:48:44.265Z,63.26
2023-12-05T06:53:51.518Z,63.41
2023-12-05T06:58:59.743Z,63.74
2023-12-05T07:04:07.660Z,63.56
2023-12-05T07:09:14.996Z,63.17
2023-12-05T07:14:22.043Z,63.58
2023-12-05T07:19:29.151Z,63.48
2023-12-05T07:24:36.328Z,63.11
2023-12-05T07:29:43.337Z,63.59
2023-12-05T07:34:51.555Z,63.02
2023-12-05T07:39:58.901Z,63.52
2023-12-05T07:45:09.276Z,63.37
2023-12-05T07:50:16.564Z,63.19
2023-12-05T07:55:23.839Z,62.97
2023-12-05T08:00:31.266Z,63.36
2023-12-05T08:05:38.376Z,63.43
2023-12-05T08:10:45.544Z,63.51
2023-12-05T08:15:53.036Z,63.36
2023-12-05T08:21:00.378Z,63.14
2023-12-05T08:26:07.841Z,63.58
2023-12-05T08:31:15.044Z,63.28
2023-12-05T08:36:22.422Z,63.67
2023-12-05T08:41:29.543Z,63.23
2023-12-05T08:46:37.651Z,63.25
2023-12-05T08:51:44.946Z,63.36
2023-12-05T08:56:52.932Z,63.24
2023-12-05T09:02:01.257Z,63.40
2023-12-05T09:07:08.386Z,63.32
2023-12-05T09:12:16.123Z,63.02
2023-12-05T09:17:23.481Z,63.09
2023-12-05T09:22:30.530Z,63.40
2023-12-05T09:27:37.817Z,63.56
2023-12-05T09:32:45.010Z,63.21
2023-12-05T09:37:52.203Z,63.36
2023-12-05T09:43:02.459Z,63.66
2023-12-05T09:48:10.706Z,63.58
2023-12-05T09:53:18.489Z,63.64
2023-12-05T09:58:25.943Z,63.35
2023-12-05T10:03:36.768Z,63.59
2023-12-05T10:08:44.731Z,63.24
2023-12-05T10:13:52.144Z,63.36
2023-12-05T10:18:59.720Z,63.58
2023-12-05T10:24:07.579Z,63.69
2023-12-05T10:29:14.513Z,63.50
2023-12-05T10:34:21.648Z,63.66
2023-12-05T10:39:37.518Z,63.88
2023-12-05T10:44:44.485Z,63.83
2023-12-05T10:49:53.422Z,63.65
2023-12-05T10:55:00.612Z,63.76
2023-12-05T11:00:09.975Z,63.74
2023-12-05T11:05:17.592Z,63.68
2023-12-05T11:10:24.687Z,63.97
2023-12-05T11:15:34.789Z,63.54
2023-12-05T11:20:49.502Z,63.71
2023-12-05T11:26:04.999Z,63.64
2023-12-05T11:31:16.719Z,63.54
2023-12-05T11:36:30.982Z,63.66
2023-12-05T11:41:37.844Z,63.25
2023-12-05T11:46:45.521Z,63.68
2023-12-05T11:51:54.391Z,63.51
2023-12-05T11:57:12.331Z,63.45
2023-12-05T12:02:21.825Z,63.43
2023-12-05T12:07:28.941Z,63.64
2023-12-05T12:12:36.300Z,63.62
2023-12-05T12:17:45.735Z,63.49
2023-12-05T12:22:53.793Z,63.55
2023-12-05T12:28:01.753Z,63.51
2023-12-05T12:33:11.202Z,63.59
2023-12-05T12:38:18.953Z,63.62
2023-12-05T12:43:26.411Z,63.61
2023-12-05T12:48:33.785Z,63.36
2023-12-05T12:53:40.694Z,63.81
2023-12-05T12:58:49.084Z,63.60
2023-12-05T13:03:57.835Z,63.37
2023-12-05T13:09:10.042Z,63.58
2023-12-05T13:14:18.917Z,63.35
2023-12-05T13:19:28.689Z,63.30
2023-12-05T13:24:35.873Z,63.49
2023-12-05T13:29:43.052Z,63.39
2023-12-05T13:34:50.285Z,63.72
2023-12-05T13:39:57.573Z,63.25
2023-12-05T13:45:04.802Z,63.52
2023-12-05T13:50:12.440Z,63.81
2023-12-05T13:55:19.637Z,63.80
2023-12-05T14:00:27.341Z,63.27
2023-12-05T14:05:34.664Z,63.51
2023-12-05T14:10:41.977Z,63.08
2023-12-05T14:15:49.706Z,63.16
2023-12-05T14:21:00.287Z,63.29
2023-12-05T14:26:08.978Z,63.21
2023-12-05T14:31:16.210Z,63.39
2023-12-05T14:36:23.350Z,63.19
2023-12-05T14:41:31.728Z,63.42
2023-12-05T14:46:39.401Z,63.09
2023-12-05T14:51:46.720Z,63.38
2023-12-05T14:56:54.452Z,63.26
2023-12-05T15:02:01.699Z,63.07
2023-12-05T15:07:09.016Z,63.36
2023-12-05T15:12:16.319Z,63.21
2023-12-05T15:17:23.382Z,62.99
2023-12-05T15:22:30.653Z,62.78
2023-12-05T15:27:38.192Z,63.45
2023-12-05T15:32:52.537Z,63.18
2023-12-05T15:38:00.349Z,62.96
2023-12-05T15:43:08.001Z,63.55
2023-12-05T15:48:42.770Z,63.01
2023-12-05T15:53:43.051Z,63.10
2023-12-05T15:58:49.975Z,62.97
2023-12-05T16:03:57.564Z,62.75
2023-12-05T16:09:06.283Z,62.57
2023-12-05T16:14:13.409Z,62.35
2023-12-05T16:19:21.621Z,62.46
2023-12-05T16:24:28.906Z,62.06
2023-12-05T16:29:36.176Z,62.66
2023-12-05T16:34:43.742Z,62.16
2023-12-05T16:39:51.046Z,62.40
2023-12-05T16:44:58.404Z,62.21
2023-12-05T16:50:06.726Z,62.46
2023-12-05T16:55:14.014Z,62.39
2023-12-05T17:00:22.498Z,62.17
2023-12-05T17:05:29.497Z,62.12
2023-12-05T17:10:36.525Z,62.42
2023-12-05T17:15:43.605Z,62.49
2023-12-05T17:20:50.722Z,62.66
2023-12-05T17:25:57.690Z,62.69
2023-12-05T17:31:06.403Z,62.41
2023-12-05T17:36:13.505Z,62.49
2023-12-05T17:41:20.338Z,62.71
2023-12-05T17:46:27.416Z,62.60
2023-12-05T17:51:34.709Z,62.60
2023-12-05T17:56:42.328Z,62.75
2023-12-05T18:01:49.390Z,62.62
2023-12-05T18:07:49.767Z,62.84
2023-12-05T18:12:24.393Z,62.71
2023-12-05T18:17:32.098Z,62.76
2023-12-05T18:22:39.349Z,62.95
2023-12-05T18:27:46.520Z,62.81
2023-12-05T18:32:53.630Z,62.71
2023-12-05T18:38:00.612Z,62.83
2023-12-05T18:43:09.106Z,62.91
2023-12-05T18:48:16.121Z,62.93
2023-12-05T18:53:24.833Z,62.92
2023-12-05T18:58:31.870Z,62.81
2023-12-05T19:03:38.859Z,62.77
2023-12-05T19:08:46.065Z,63.07
2023-12-05T19:13:53.013Z,63.11
2023-12-05T19:19:00.079Z,62.97
2023-12-05T19:24:07.493Z,63.14
2023-12-05T19:29:15.043Z,62.98
2023-12-05T19:34:26.349Z,63.16
2023-12-05T19:39:37.343Z,63.00
2023-12-05T19:44:44.678Z,62.96
2023-12-05T19:49:51.954Z,62.86
2023-12-05T19:54:59.375Z,62.94
2023-12-05T20:00:07.266Z,62.91
2023-12-05T20:05:14.205Z,62.95
2023-12-05T20:10:22.460Z,62.95
2023-12-05T20:15:31.209Z,63.06
2023-12-05T20:20:38.205Z,62.87
2023-12-05T20:25:45.818Z,63.03
2023-12-05T20:30:53.268Z,62.93
2023-12-05T20:36:00.393Z,62.83
2023-12-05T20:41:07.751Z,62.97
2023-12-05T20:46:15.174Z,63.01
2023-12-05T20:51:22.322Z,62.91
2023-12-05T20:56:29.566Z,62.91
2023-12-05T21:01:36.723Z,62.89
2023-12-05T21:06:50.171Z,62.85
2023-12-05T21:11:58.317Z,63.06
2023-12-05T21:17:05.747Z,62.89
2023-12-05T21:22:12.654Z,62.91
2023-12-05T21:27:19.950Z,62.82
2023-12-05T21:32:27.223Z,62.81
2023-12-05T21:37:34.182Z,62.92
2023-12-05T21:42:41.226Z,62.94
2023-12-05T21:47:47.901Z,63.05
2023-12-05T21:52:55.014Z,63.17
2023-12-05T21:58:02.329Z,62.89
2023-12-05T22:03:09.656Z,62.98
2023-12-05T22:08:16.767Z,62.92
2023-12-05T22:13:23.720Z,63.01
2023-12-05T22:18:32.825Z,62.95
2023-12-05T22:23:41.877Z,63.05
2023-12-05T22:28:48.976Z,62.80
2023-12-05T22:33:56.634Z,63.01
2023-12-05T22:39:05.818Z,62.96
2023-12-05T22:44:13.110Z,63.03
2023-12-05T22:49:20.072Z,62.96
2023-12-05T22:54:27.250Z,62.92
2023-12-05T22:59:34.831Z,63.13
2023-12-05T23:04:41.920Z,63.04
2023-12-05T23:09:48.906Z,62.83
2023-12-05T23:14:56.181Z,63.05
2023-12-05T23:20:03.147Z,63.00
2023-12-05T23:25:10.704Z,62.71
2023-12-05T23:30:18.476Z,63.01
2023-12-05T23:35:25.563Z,62.95
2023-12-05T23:40:32.966Z,63.08
2023-12-05T23:45:40.202Z,62.96
2023-12-05T23:50:47.560Z,63.01
2023-12-05T23:55:54.788Z,63.19
